sensor_id;sensor_type;location;lat;lon;timestamp;P1;durP1;ratioP1;P2;durP2;ratioP2
14118;SDS011;7138;49.246;9.100;2023-03-05T00:01:53;42.58;;;14.93;;
14118;SDS011;7138;49.246;9.100;2023-03-05T00:06:48;38.95;;;15.05;;
14118;SDS011;7138;49.246;9.100;2023-03-05T00:09:14;43.40;;;15.40;;
14118;SDS011;7138;49.246;9.100;2023-03-05T00:11:40;50.42;;;17.50;;
14118;SDS011;7138;49.246;9.100;2023-03-05T00:14:06;36.92;;;15.02;;
14118;SDS011;7138;49.246;9.100;2023-03-05T00:16:32;40.38;;;15.07;;
14118;SDS011;7138;49.246;9.100;2023-03-05T00:18:58;44.53;;;15.88;;
14118;SDS011;7138;49.246;9.100;2023-03-05T00:21:26;42.55;;;15.57;;
14118;SDS011;7138;49.246;9.100;2023-03-05T00:23:56;41.70;;;15.80;;
14118;SDS011;7138;49.246;9.100;2023-03-05T00:26:26;43.47;;;16.00;;
14118;SDS011;7138;49.246;9.100;2023-03-05T00:28:53;39.50;;;14.57;;
14118;SDS011;7138;49.246;9.100;2023-03-05T00:31:22;39.92;;;15.20;;
14118;SDS011;7138;49.246;9.100;2023-03-05T00:33:55;47.70;;;16.45;;
14118;SDS011;7138;49.246;9.100;2023-03-05T00:36:22;37.15;;;14.80;;
14118;SDS011;7138;49.246;9.100;2023-03-05T00:38:49;40.33;;;14.90;;
14118;SDS011;7138;49.246;9.100;2023-03-05T00:41:16;42.58;;;15.82;;
14118;SDS011;7138;49.246;9.100;2023-03-05T00:43:42;40.65;;;14.68;;
14118;SDS011;7138;49.246;9.100;2023-03-05T00:46:08;39.58;;;14.77;;
14118;SDS011;7138;49.246;9.100;2023-03-05T00:48:34;40.67;;;14.60;;
14118;SDS011;7138;49.246;9.100;2023-03-05T00:51:00;35.33;;;14.60;;
14118;SDS011;7138;49.246;9.100;2023-03-05T00:53:26;41.42;;;15.35;;
14118;SDS011;7138;49.246;9.100;2023-03-05T00:55:52;39.35;;;15.05;;
14118;SDS011;7138;49.246;9.100;2023-03-05T00:58:19;41.45;;;15.30;;
14118;SDS011;7138;49.246;9.100;2023-03-05T01:00:45;39.80;;;15.15;;
14118;SDS011;7138;49.246;9.100;2023-03-05T01:03:14;44.90;;;16.92;;
14118;SDS011;7138;49.246;9.100;2023-03-05T01:05:40;41.53;;;15.63;;
14118;SDS011;7138;49.246;9.100;2023-03-05T01:08:07;43.70;;;15.43;;
14118;SDS011;7138;49.246;9.100;2023-03-05T01:10:33;39.13;;;14.98;;
14118;SDS011;7138;49.246;9.100;2023-03-05T01:12:59;43.78;;;15.98;;
14118;SDS011;7138;49.246;9.100;2023-03-05T01:15:26;50.28;;;16.52;;
14118;SDS011;7138;49.246;9.100;2023-03-05T01:17:53;43.55;;;15.93;;
14118;SDS011;7138;49.246;9.100;2023-03-05T01:20:19;47.60;;;17.67;;
14118;SDS011;7138;49.246;9.100;2023-03-05T01:22:47;47.80;;;17.67;;
14118;SDS011;7138;49.246;9.100;2023-03-05T01:25:14;41.53;;;16.17;;
14118;SDS011;7138;49.246;9.100;2023-03-05T01:27:41;44.17;;;15.02;;
14118;SDS011;7138;49.246;9.100;2023-03-05T01:30:07;41.30;;;14.95;;
14118;SDS011;7138;49.246;9.100;2023-03-05T01:32:36;40.03;;;15.15;;
14118;SDS011;7138;49.246;9.100;2023-03-05T01:35:02;41.22;;;13.95;;
14118;SDS011;7138;49.246;9.100;2023-03-05T01:37:30;47.88;;;15.93;;
14118;SDS011;7138;49.246;9.100;2023-03-05T01:39:56;44.95;;;15.30;;
14118;SDS011;7138;49.246;9.100;2023-03-05T01:42:22;44.50;;;15.27;;
14118;SDS011;7138;49.246;9.100;2023-03-05T01:45:02;46.63;;;15.57;;
14118;SDS011;7138;49.246;9.100;2023-03-05T01:47:34;37.97;;;14.38;;
14118;SDS011;7138;49.246;9.100;2023-03-05T01:50:02;39.97;;;14.20;;
14118;SDS011;7138;49.246;9.100;2023-03-05T01:52:31;40.97;;;15.00;;
14118;SDS011;7138;49.246;9.100;2023-03-05T01:55:01;38.60;;;15.07;;
14118;SDS011;7138;49.246;9.100;2023-03-05T01:57:33;43.58;;;16.17;;
14118;SDS011;7138;49.246;9.100;2023-03-05T02:00:05;45.53;;;15.48;;
14118;SDS011;7138;49.246;9.100;2023-03-05T02:02:40;45.35;;;15.43;;
14118;SDS011;7138;49.246;9.100;2023-03-05T02:05:09;43.42;;;14.23;;
14118;SDS011;7138;49.246;9.100;2023-03-05T02:07:40;36.65;;;15.02;;
14118;SDS011;7138;49.246;9.100;2023-03-05T02:10:16;38.58;;;14.43;;
14118;SDS011;7138;49.246;9.100;2023-03-05T02:12:44;39.33;;;14.02;;
14118;SDS011;7138;49.246;9.100;2023-03-05T02:15:13;40.08;;;14.70;;
14118;SDS011;7138;49.246;9.100;2023-03-05T02:17:40;38.60;;;14.55;;
14118;SDS011;7138;49.246;9.100;2023-03-05T02:20:07;41.03;;;14.10;;
14118;SDS011;7138;49.246;9.100;2023-03-05T02:22:39;36.30;;;13.25;;
14118;SDS011;7138;49.246;9.100;2023-03-05T02:25:16;33.55;;;13.63;;
14118;SDS011;7138;49.246;9.100;2023-03-05T02:27:46;40.22;;;14.55;;
14118;SDS011;7138;49.246;9.100;2023-03-05T02:30:20;37.13;;;13.90;;
14118;SDS011;7138;49.246;9.100;2023-03-05T02:32:46;44.10;;;14.93;;
14118;SDS011;7138;49.246;9.100;2023-03-05T02:35:12;36.25;;;13.60;;
14118;SDS011;7138;49.246;9.100;2023-03-05T02:37:39;35.22;;;13.15;;
14118;SDS011;7138;49.246;9.100;2023-03-05T02:40:06;35.83;;;14.27;;
14118;SDS011;7138;49.246;9.100;2023-03-05T02:42:33;41.33;;;15.40;;
14118;SDS011;7138;49.246;9.100;2023-03-05T02:44:59;38.33;;;14.45;;
14118;SDS011;7138;49.246;9.100;2023-03-05T02:47:26;32.70;;;13.05;;
14118;SDS011;7138;49.246;9.100;2023-03-05T02:49:52;40.78;;;14.80;;
14118;SDS011;7138;49.246;9.100;2023-03-05T02:52:18;36.72;;;12.80;;
14118;SDS011;7138;49.246;9.100;2023-03-05T02:54:46;35.67;;;13.68;;
14118;SDS011;7138;49.246;9.100;2023-03-05T02:57:11;38.17;;;14.05;;
14118;SDS011;7138;49.246;9.100;2023-03-05T02:59:37;37.55;;;13.70;;
14118;SDS011;7138;49.246;9.100;2023-03-05T03:02:03;40.67;;;13.32;;
14118;SDS011;7138;49.246;9.100;2023-03-05T03:04:29;35.92;;;14.00;;
14118;SDS011;7138;49.246;9.100;2023-03-05T03:06:55;37.25;;;14.23;;
14118;SDS011;7138;49.246;9.100;2023-03-05T03:09:21;43.33;;;15.77;;
14118;SDS011;7138;49.246;9.100;2023-03-05T03:11:48;41.10;;;14.50;;
14118;SDS011;7138;49.246;9.100;2023-03-05T03:14:14;37.60;;;13.98;;
14118;SDS011;7138;49.246;9.100;2023-03-05T03:16:39;37.92;;;13.65;;
14118;SDS011;7138;49.246;9.100;2023-03-05T03:19:05;44.65;;;14.77;;
14118;SDS011;7138;49.246;9.100;2023-03-05T03:21:31;38.38;;;13.80;;
14118;SDS011;7138;49.246;9.100;2023-03-05T03:23:57;39.42;;;14.40;;
14118;SDS011;7138;49.246;9.100;2023-03-05T03:26:23;38.72;;;14.80;;
14118;SDS011;7138;49.246;9.100;2023-03-05T03:28:50;38.67;;;14.60;;
14118;SDS011;7138;49.246;9.100;2023-03-05T03:31:16;38.67;;;14.27;;
14118;SDS011;7138;49.246;9.100;2023-03-05T03:33:42;46.55;;;16.85;;
14118;SDS011;7138;49.246;9.100;2023-03-05T03:36:08;42.67;;;14.68;;
14118;SDS011;7138;49.246;9.100;2023-03-05T03:38:34;40.63;;;14.93;;
14118;SDS011;7138;49.246;9.100;2023-03-05T03:41:00;40.30;;;15.18;;
14118;SDS011;7138;49.246;9.100;2023-03-05T03:43:26;39.65;;;14.02;;
14118;SDS011;7138;49.246;9.100;2023-03-05T03:45:53;36.60;;;14.43;;
14118;SDS011;7138;49.246;9.100;2023-03-05T03:48:19;39.70;;;14.57;;
14118;SDS011;7138;49.246;9.100;2023-03-05T03:50:44;43.38;;;15.77;;
14118;SDS011;7138;49.246;9.100;2023-03-05T03:53:10;37.55;;;14.85;;
14118;SDS011;7138;49.246;9.100;2023-03-05T03:55:38;37.80;;;14.40;;
14118;SDS011;7138;49.246;9.100;2023-03-05T03:58:06;37.55;;;14.38;;
14118;SDS011;7138;49.246;9.100;2023-03-05T04:00:32;43.22;;;15.43;;
14118;SDS011;7138;49.246;9.100;2023-03-05T04:03:00;34.20;;;14.13;;
14118;SDS011;7138;49.246;9.100;2023-03-05T04:05:26;36.53;;;14.48;;
14118;SDS011;7138;49.246;9.100;2023-03-05T04:07:52;36.47;;;13.95;;
14118;SDS011;7138;49.246;9.100;2023-03-05T04:10:18;39.58;;;15.20;;
14118;SDS011;7138;49.246;9.100;2023-03-05T04:12:44;40.08;;;13.88;;
14118;SDS011;7138;49.246;9.100;2023-03-05T04:15:10;41.17;;;13.88;;
14118;SDS011;7138;49.246;9.100;2023-03-05T04:17:36;39.65;;;14.20;;
14118;SDS011;7138;49.246;9.100;2023-03-05T04:20:04;38.30;;;14.95;;
14118;SDS011;7138;49.246;9.100;2023-03-05T04:22:34;37.90;;;13.73;;
14118;SDS011;7138;49.246;9.100;2023-03-05T04:25:00;38.90;;;14.80;;
14118;SDS011;7138;49.246;9.100;2023-03-05T04:27:30;39.10;;;15.30;;
14118;SDS011;7138;49.246;9.100;2023-03-05T04:29:56;34.35;;;13.90;;
14118;SDS011;7138;49.246;9.100;2023-03-05T04:32:22;41.55;;;14.57;;
14118;SDS011;7138;49.246;9.100;2023-03-05T04:34:52;38.00;;;14.60;;
14118;SDS011;7138;49.246;9.100;2023-03-05T04:37:19;38.10;;;14.23;;
14118;SDS011;7138;49.246;9.100;2023-03-05T04:39:45;35.28;;;13.68;;
14118;SDS011;7138;49.246;9.100;2023-03-05T04:42:11;35.08;;;13.10;;
14118;SDS011;7138;49.246;9.100;2023-03-05T04:44:37;38.17;;;14.32;;
14118;SDS011;7138;49.246;9.100;2023-03-05T04:47:03;42.42;;;16.15;;
14118;SDS011;7138;49.246;9.100;2023-03-05T04:49:29;36.30;;;15.27;;
14118;SDS011;7138;49.246;9.100;2023-03-05T04:51:55;38.88;;;15.05;;
14118;SDS011;7138;49.246;9.100;2023-03-05T04:54:23;37.08;;;14.65;;
14118;SDS011;7138;49.246;9.100;2023-03-05T04:56:49;35.75;;;13.63;;
14118;SDS011;7138;49.246;9.100;2023-03-05T04:59:14;42.45;;;16.00;;
14118;SDS011;7138;49.246;9.100;2023-03-05T05:01:43;41.28;;;13.75;;
14118;SDS011;7138;49.246;9.100;2023-03-05T05:04:09;36.85;;;14.27;;
14118;SDS011;7138;49.246;9.100;2023-03-05T05:06:35;38.92;;;15.60;;
14118;SDS011;7138;49.246;9.100;2023-03-05T05:09:01;35.47;;;14.07;;
14118;SDS011;7138;49.246;9.100;2023-03-05T05:11:28;37.13;;;14.80;;
14118;SDS011;7138;49.246;9.100;2023-03-05T05:13:54;42.10;;;14.15;;
14118;SDS011;7138;49.246;9.100;2023-03-05T05:16:20;33.83;;;14.43;;
14118;SDS011;7138;49.246;9.100;2023-03-05T05:18:46;38.13;;;15.02;;
14118;SDS011;7138;49.246;9.100;2023-03-05T05:21:12;32.42;;;13.15;;
14118;SDS011;7138;49.246;9.100;2023-03-05T05:23:39;38.75;;;15.85;;
14118;SDS011;7138;49.246;9.100;2023-03-05T05:26:06;37.85;;;15.32;;
14118;SDS011;7138;49.246;9.100;2023-03-05T05:28:34;44.25;;;14.88;;
14118;SDS011;7138;49.246;9.100;2023-03-05T05:31:05;27.50;;;11.80;;
14118;SDS011;7138;49.246;9.100;2023-03-05T05:33:31;43.50;;;15.80;;
14118;SDS011;7138;49.246;9.100;2023-03-05T05:35:57;39.58;;;15.57;;
14118;SDS011;7138;49.246;9.100;2023-03-05T05:38:23;38.53;;;14.77;;
14118;SDS011;7138;49.246;9.100;2023-03-05T05:40:49;43.35;;;15.48;;
14118;SDS011;7138;49.246;9.100;2023-03-05T05:43:14;37.63;;;15.85;;
14118;SDS011;7138;49.246;9.100;2023-03-05T05:45:42;38.97;;;15.45;;
14118;SDS011;7138;49.246;9.100;2023-03-05T05:48:07;39.33;;;15.30;;
14118;SDS011;7138;49.246;9.100;2023-03-05T05:50:33;36.33;;;15.60;;
14118;SDS011;7138;49.246;9.100;2023-03-05T05:53:01;34.78;;;13.68;;
14118;SDS011;7138;49.246;9.100;2023-03-05T05:55:26;42.75;;;15.70;;
14118;SDS011;7138;49.246;9.100;2023-03-05T05:57:52;39.63;;;15.68;;
14118;SDS011;7138;49.246;9.100;2023-03-05T06:00:18;40.65;;;16.83;;
14118;SDS011;7138;49.246;9.100;2023-03-05T06:02:46;39.03;;;14.82;;
14118;SDS011;7138;49.246;9.100;2023-03-05T06:05:12;38.00;;;14.60;;
14118;SDS011;7138;49.246;9.100;2023-03-05T06:07:39;35.00;;;15.02;;
14118;SDS011;7138;49.246;9.100;2023-03-05T06:10:05;36.47;;;15.15;;
14118;SDS011;7138;49.246;9.100;2023-03-05T06:12:33;39.35;;;15.35;;
14118;SDS011;7138;49.246;9.100;2023-03-05T06:15:00;44.40;;;15.98;;
14118;SDS011;7138;49.246;9.100;2023-03-05T06:17:26;42.70;;;16.95;;
14118;SDS011;7138;49.246;9.100;2023-03-05T06:19:54;35.85;;;16.10;;
14118;SDS011;7138;49.246;9.100;2023-03-05T06:22:20;39.28;;;16.27;;
14118;SDS011;7138;49.246;9.100;2023-03-05T06:24:46;44.03;;;16.25;;
14118;SDS011;7138;49.246;9.100;2023-03-05T06:27:11;41.17;;;15.43;;
14118;SDS011;7138;49.246;9.100;2023-03-05T06:29:37;43.67;;;15.13;;
14118;SDS011;7138;49.246;9.100;2023-03-05T06:32:03;37.22;;;16.05;;
14118;SDS011;7138;49.246;9.100;2023-03-05T06:34:30;36.50;;;15.65;;
14118;SDS011;7138;49.246;9.100;2023-03-05T06:36:57;39.58;;;15.27;;
14118;SDS011;7138;49.246;9.100;2023-03-05T06:39:23;40.08;;;16.08;;
14118;SDS011;7138;49.246;9.100;2023-03-05T06:41:49;38.08;;;15.07;;
14118;SDS011;7138;49.246;9.100;2023-03-05T06:44:16;37.35;;;15.23;;
14118;SDS011;7138;49.246;9.100;2023-03-05T06:46:45;35.40;;;15.05;;
14118;SDS011;7138;49.246;9.100;2023-03-05T06:49:11;39.95;;;15.77;;
14118;SDS011;7138;49.246;9.100;2023-03-05T06:51:37;37.83;;;15.07;;
14118;SDS011;7138;49.246;9.100;2023-03-05T06:54:06;41.58;;;16.85;;
14118;SDS011;7138;49.246;9.100;2023-03-05T06:56:35;39.85;;;15.75;;
14118;SDS011;7138;49.246;9.100;2023-03-05T06:59:03;40.03;;;15.98;;
14118;SDS011;7138;49.246;9.100;2023-03-05T07:01:30;39.15;;;15.73;;
14118;SDS011;7138;49.246;9.100;2023-03-05T07:03:56;36.08;;;15.23;;
14118;SDS011;7138;49.246;9.100;2023-03-05T07:06:24;42.67;;;17.20;;
14118;SDS011;7138;49.246;9.100;2023-03-05T07:08:53;37.72;;;15.95;;
14118;SDS011;7138;49.246;9.100;2023-03-05T07:11:21;40.08;;;15.60;;
14118;SDS011;7138;49.246;9.100;2023-03-05T07:13:48;41.88;;;15.50;;
14118;SDS011;7138;49.246;9.100;2023-03-05T07:16:16;43.72;;;16.40;;
14118;SDS011;7138;49.246;9.100;2023-03-05T07:18:44;42.92;;;15.40;;
14118;SDS011;7138;49.246;9.100;2023-03-05T07:21:11;44.40;;;17.10;;
14118;SDS011;7138;49.246;9.100;2023-03-05T07:23:42;38.15;;;15.20;;
14118;SDS011;7138;49.246;9.100;2023-03-05T07:26:09;45.22;;;16.73;;
14118;SDS011;7138;49.246;9.100;2023-03-05T07:28:36;36.45;;;15.30;;
14118;SDS011;7138;49.246;9.100;2023-03-05T07:31:03;37.05;;;15.07;;
14118;SDS011;7138;49.246;9.100;2023-03-05T07:33:31;38.50;;;15.05;;
14118;SDS011;7138;49.246;9.100;2023-03-05T07:36:00;41.17;;;15.80;;
14118;SDS011;7138;49.246;9.100;2023-03-05T07:38:28;42.20;;;15.50;;
14118;SDS011;7138;49.246;9.100;2023-03-05T07:40:54;43.20;;;15.75;;
14118;SDS011;7138;49.246;9.100;2023-03-05T07:43:20;41.08;;;16.42;;
14118;SDS011;7138;49.246;9.100;2023-03-05T07:45:47;34.67;;;14.95;;
14118;SDS011;7138;49.246;9.100;2023-03-05T07:48:13;40.45;;;15.15;;
14118;SDS011;7138;49.246;9.100;2023-03-05T07:50:42;40.60;;;14.48;;
14118;SDS011;7138;49.246;9.100;2023-03-05T07:53:08;43.58;;;15.85;;
14118;SDS011;7138;49.246;9.100;2023-03-05T07:55:34;41.78;;;14.75;;
14118;SDS011;7138;49.246;9.100;2023-03-05T07:58:07;38.28;;;14.98;;
14118;SDS011;7138;49.246;9.100;2023-03-05T08:00:33;41.70;;;15.65;;
14118;SDS011;7138;49.246;9.100;2023-03-05T08:03:00;41.38;;;14.88;;
14118;SDS011;7138;49.246;9.100;2023-03-05T08:05:26;36.63;;;14.85;;
14118;SDS011;7138;49.246;9.100;2023-03-05T08:07:52;33.45;;;14.35;;
14118;SDS011;7138;49.246;9.100;2023-03-05T08:10:17;38.33;;;14.68;;
14118;SDS011;7138;49.246;9.100;2023-03-05T08:12:43;42.00;;;15.18;;
14118;SDS011;7138;49.246;9.100;2023-03-05T08:15:10;38.70;;;14.35;;
14118;SDS011;7138;49.246;9.100;2023-03-05T08:17:36;42.85;;;15.93;;
14118;SDS011;7138;49.246;9.100;2023-03-05T08:20:04;38.20;;;15.13;;
14118;SDS011;7138;49.246;9.100;2023-03-05T08:22:34;38.83;;;14.95;;
14118;SDS011;7138;49.246;9.100;2023-03-05T08:25:01;36.45;;;14.70;;
14118;SDS011;7138;49.246;9.100;2023-03-05T08:27:29;39.58;;;14.40;;
14118;SDS011;7138;49.246;9.100;2023-03-05T08:29:55;38.60;;;14.82;;
14118;SDS011;7138;49.246;9.100;2023-03-05T08:32:21;43.25;;;16.10;;
14118;SDS011;7138;49.246;9.100;2023-03-05T08:34:47;38.70;;;15.88;;
14118;SDS011;7138;49.246;9.100;2023-03-05T08:37:14;39.33;;;16.45;;
14118;SDS011;7138;49.246;9.100;2023-03-05T08:39:40;39.83;;;15.35;;
14118;SDS011;7138;49.246;9.100;2023-03-05T08:42:06;39.35;;;15.07;;
14118;SDS011;7138;49.246;9.100;2023-03-05T08:44:32;40.63;;;15.23;;
14118;SDS011;7138;49.246;9.100;2023-03-05T08:46:57;38.05;;;15.32;;
14118;SDS011;7138;49.246;9.100;2023-03-05T08:49:23;44.33;;;16.25;;
14118;SDS011;7138;49.246;9.100;2023-03-05T08:51:49;38.40;;;15.13;;
14118;SDS011;7138;49.246;9.100;2023-03-05T08:54:19;41.53;;;15.23;;
14118;SDS011;7138;49.246;9.100;2023-03-05T08:56:44;35.10;;;14.45;;
14118;SDS011;7138;49.246;9.100;2023-03-05T08:59:10;39.88;;;14.57;;
14118;SDS011;7138;49.246;9.100;2023-03-05T09:01:36;42.17;;;15.32;;
14118;SDS011;7138;49.246;9.100;2023-03-05T09:04:02;41.35;;;15.60;;
14118;SDS011;7138;49.246;9.100;2023-03-05T09:06:28;46.03;;;16.63;;
14118;SDS011;7138;49.246;9.100;2023-03-05T09:08:54;43.65;;;16.10;;
14118;SDS011;7138;49.246;9.100;2023-03-05T09:11:21;38.15;;;15.13;;
14118;SDS011;7138;49.246;9.100;2023-03-05T09:13:47;40.72;;;15.95;;
14118;SDS011;7138;49.246;9.100;2023-03-05T09:16:14;38.72;;;14.77;;
14118;SDS011;7138;49.246;9.100;2023-03-05T09:18:42;41.78;;;16.15;;
14118;SDS011;7138;49.246;9.100;2023-03-05T09:21:09;38.80;;;16.15;;
14118;SDS011;7138;49.246;9.100;2023-03-05T09:23:38;38.13;;;16.00;;
14118;SDS011;7138;49.246;9.100;2023-03-05T09:26:05;36.85;;;16.58;;
14118;SDS011;7138;49.246;9.100;2023-03-05T09:28:33;39.40;;;16.23;;
14118;SDS011;7138;49.246;9.100;2023-03-05T09:31:01;39.30;;;16.60;;
14118;SDS011;7138;49.246;9.100;2023-03-05T09:33:27;39.03;;;16.25;;
14118;SDS011;7138;49.246;9.100;2023-03-05T09:35:53;38.22;;;15.95;;
14118;SDS011;7138;49.246;9.100;2023-03-05T09:38:19;40.95;;;16.65;;
14118;SDS011;7138;49.246;9.100;2023-03-05T09:40:47;41.90;;;16.70;;
14118;SDS011;7138;49.246;9.100;2023-03-05T09:43:28;42.90;;;16.30;;
14118;SDS011;7138;49.246;9.100;2023-03-05T09:46:12;41.00;;;16.85;;
14118;SDS011;7138;49.246;9.100;2023-03-05T09:48:56;35.78;;;16.02;;
14118;SDS011;7138;49.246;9.100;2023-03-05T09:51:38;37.40;;;15.75;;
14118;SDS011;7138;49.246;9.100;2023-03-05T09:54:09;35.33;;;15.93;;
14118;SDS011;7138;49.246;9.100;2023-03-05T09:56:43;34.85;;;16.77;;
14118;SDS011;7138;49.246;9.100;2023-03-05T09:59:19;32.58;;;15.30;;
14118;SDS011;7138;49.246;9.100;2023-03-05T10:01:53;35.25;;;15.20;;
14118;SDS011;7138;49.246;9.100;2023-03-05T10:04:24;33.88;;;15.80;;
14118;SDS011;7138;49.246;9.100;2023-03-05T10:07:10;34.33;;;15.25;;
14118;SDS011;7138;49.246;9.100;2023-03-05T10:09:43;40.78;;;16.60;;
14118;SDS011;7138;49.246;9.100;2023-03-05T10:12:17;39.90;;;18.90;;
14118;SDS011;7138;49.246;9.100;2023-03-05T10:14:53;35.63;;;15.98;;
14118;SDS011;7138;49.246;9.100;2023-03-05T10:17:26;33.85;;;14.75;;
14118;SDS011;7138;49.246;9.100;2023-03-05T10:20:25;28.08;;;14.88;;
14118;SDS011;7138;49.246;9.100;2023-03-05T10:23:22;31.15;;;15.45;;
14118;SDS011;7138;49.246;9.100;2023-03-05T10:25:57;27.35;;;14.27;;
14118;SDS011;7138;49.246;9.100;2023-03-05T10:28:38;27.85;;;13.57;;
14118;SDS011;7138;49.246;9.100;2023-03-05T10:31:17;26.67;;;12.20;;
14118;SDS011;7138;49.246;9.100;2023-03-05T10:37:11;31.08;;;12.60;;
14118;SDS011;7138;49.246;9.100;2023-03-05T10:40:14;28.55;;;12.60;;
14118;SDS011;7138;49.246;9.100;2023-03-05T10:42:55;25.30;;;12.07;;
14118;SDS011;7138;49.246;9.100;2023-03-05T10:45:35;24.27;;;11.55;;
14118;SDS011;7138;49.246;9.100;2023-03-05T10:48:10;24.98;;;11.70;;
14118;SDS011;7138;49.246;9.100;2023-03-05T10:50:52;24.20;;;11.32;;
14118;SDS011;7138;49.246;9.100;2023-03-05T10:53:26;21.08;;;10.00;;
14118;SDS011;7138;49.246;9.100;2023-03-05T10:55:59;23.38;;;9.57;;
14118;SDS011;7138;49.246;9.100;2023-03-05T10:58:27;23.83;;;10.55;;
14118;SDS011;7138;49.246;9.100;2023-03-05T11:00:57;21.17;;;10.07;;
14118;SDS011;7138;49.246;9.100;2023-03-05T11:03:46;19.40;;;9.43;;
14118;SDS011;7138;49.246;9.100;2023-03-05T11:06:25;19.55;;;9.18;;
14118;SDS011;7138;49.246;9.100;2023-03-05T11:08:54;17.95;;;9.60;;
14118;SDS011;7138;49.246;9.100;2023-03-05T11:11:38;21.33;;;10.30;;
14118;SDS011;7138;49.246;9.100;2023-03-05T11:14:04;22.02;;;9.77;;
14118;SDS011;7138;49.246;9.100;2023-03-05T11:16:48;20.40;;;10.02;;
14118;SDS011;7138;49.246;9.100;2023-03-05T11:19:19;20.40;;;10.38;;
14118;SDS011;7138;49.246;9.100;2023-03-05T11:22:03;21.00;;;10.55;;
14118;SDS011;7138;49.246;9.100;2023-03-05T11:24:38;22.70;;;10.55;;
14118;SDS011;7138;49.246;9.100;2023-03-05T11:27:20;26.75;;;12.15;;
14118;SDS011;7138;49.246;9.100;2023-03-05T11:29:50;26.65;;;11.85;;
14118;SDS011;7138;49.246;9.100;2023-03-05T11:32:19;27.13;;;12.45;;
14118;SDS011;7138;49.246;9.100;2023-03-05T11:34:49;27.15;;;13.32;;
14118;SDS011;7138;49.246;9.100;2023-03-05T11:37:21;25.48;;;11.88;;
14118;SDS011;7138;49.246;9.100;2023-03-05T11:42:45;23.35;;;11.88;;
14118;SDS011;7138;49.246;9.100;2023-03-05T11:45:20;25.40;;;11.70;;
14118;SDS011;7138;49.246;9.100;2023-03-05T11:47:49;23.52;;;11.90;;
14118;SDS011;7138;49.246;9.100;2023-03-05T11:50:20;24.70;;;12.07;;
14118;SDS011;7138;49.246;9.100;2023-03-05T11:52:48;24.45;;;11.10;;
14118;SDS011;7138;49.246;9.100;2023-03-05T11:55:16;29.45;;;12.25;;
14118;SDS011;7138;49.246;9.100;2023-03-05T11:57:47;23.55;;;11.07;;
14118;SDS011;7138;49.246;9.100;2023-03-05T12:00:30;25.80;;;13.07;;
14118;SDS011;7138;49.246;9.100;2023-03-05T12:03:01;21.77;;;11.40;;
14118;SDS011;7138;49.246;9.100;2023-03-05T12:05:37;23.55;;;10.73;;
14118;SDS011;7138;49.246;9.100;2023-03-05T12:08:09;25.45;;;11.25;;
14118;SDS011;7138;49.246;9.100;2023-03-05T12:10:39;22.30;;;11.27;;
14118;SDS011;7138;49.246;9.100;2023-03-05T12:13:05;19.30;;;10.63;;
14118;SDS011;7138;49.246;9.100;2023-03-05T12:15:46;20.88;;;8.88;;
14118;SDS011;7138;49.246;9.100;2023-03-05T12:18:29;18.38;;;8.93;;
14118;SDS011;7138;49.246;9.100;2023-03-05T12:21:13;18.42;;;9.10;;
14118;SDS011;7138;49.246;9.100;2023-03-05T12:23:51;16.65;;;8.85;;
14118;SDS011;7138;49.246;9.100;2023-03-05T12:29:29;19.70;;;7.85;;
14118;SDS011;7138;49.246;9.100;2023-03-05T12:35:23;16.65;;;7.75;;
14118;SDS011;7138;49.246;9.100;2023-03-05T12:44:15;16.67;;;7.78;;
14118;SDS011;7138;49.246;9.100;2023-03-05T12:49:45;16.67;;;8.00;;
14118;SDS011;7138;49.246;9.100;2023-03-05T12:52:12;15.35;;;8.23;;
14118;SDS011;7138;49.246;9.100;2023-03-05T12:54:57;17.38;;;8.52;;
14118;SDS011;7138;49.246;9.100;2023-03-05T12:57:39;18.13;;;10.38;;
14118;SDS011;7138;49.246;9.100;2023-03-05T13:00:09;18.05;;;10.35;;
14118;SDS011;7138;49.246;9.100;2023-03-05T13:02:45;19.92;;;9.90;;
14118;SDS011;7138;49.246;9.100;2023-03-05T13:05:20;16.02;;;9.57;;
14118;SDS011;7138;49.246;9.100;2023-03-05T13:07:53;17.50;;;9.40;;
14118;SDS011;7138;49.246;9.100;2023-03-05T13:10:37;19.38;;;10.15;;
14118;SDS011;7138;49.246;9.100;2023-03-05T13:13:04;19.02;;;9.88;;
14118;SDS011;7138;49.246;9.100;2023-03-05T13:15:30;16.55;;;9.05;;
14118;SDS011;7138;49.246;9.100;2023-03-05T13:17:57;19.85;;;9.85;;
14118;SDS011;7138;49.246;9.100;2023-03-05T13:20:32;17.58;;;8.27;;
14118;SDS011;7138;49.246;9.100;2023-03-05T13:23:04;16.13;;;9.20;;
14118;SDS011;7138;49.246;9.100;2023-03-05T13:26:07;16.73;;;8.77;;
14118;SDS011;7138;49.246;9.100;2023-03-05T13:28:39;18.20;;;8.65;;
14118;SDS011;7138;49.246;9.100;2023-03-05T13:31:11;14.73;;;8.07;;
14118;SDS011;7138;49.246;9.100;2023-03-05T13:33:39;15.93;;;7.38;;
14118;SDS011;7138;49.246;9.100;2023-03-05T13:36:17;16.25;;;7.28;;
14118;SDS011;7138;49.246;9.100;2023-03-05T13:38:44;16.02;;;7.25;;
14118;SDS011;7138;49.246;9.100;2023-03-05T13:41:20;12.88;;;6.97;;
14118;SDS011;7138;49.246;9.100;2023-03-05T13:43:50;13.65;;;6.63;;
14118;SDS011;7138;49.246;9.100;2023-03-05T13:46:28;16.40;;;7.25;;
14118;SDS011;7138;49.246;9.100;2023-03-05T13:48:56;12.45;;;6.28;;
14118;SDS011;7138;49.246;9.100;2023-03-05T13:51:41;14.13;;;6.97;;
14118;SDS011;7138;49.246;9.100;2023-03-05T13:54:10;11.65;;;5.22;;
14118;SDS011;7138;49.246;9.100;2023-03-05T13:56:48;11.40;;;5.22;;
14118;SDS011;7138;49.246;9.100;2023-03-05T13:59:17;10.93;;;5.35;;
14118;SDS011;7138;49.246;9.100;2023-03-05T14:01:46;13.40;;;5.20;;
14118;SDS011;7138;49.246;9.100;2023-03-05T14:04:17;11.95;;;5.10;;
14118;SDS011;7138;49.246;9.100;2023-03-05T14:06:47;10.13;;;5.30;;
14118;SDS011;7138;49.246;9.100;2023-03-05T14:09:19;11.18;;;4.50;;
14118;SDS011;7138;49.246;9.100;2023-03-05T14:11:56;10.75;;;3.47;;
14118;SDS011;7138;49.246;9.100;2023-03-05T14:14:26;12.20;;;4.63;;
14118;SDS011;7138;49.246;9.100;2023-03-05T14:16:56;14.10;;;5.73;;
14118;SDS011;7138;49.246;9.100;2023-03-05T14:20:05;9.27;;;4.30;;
14118;SDS011;7138;49.246;9.100;2023-03-05T14:22:42;9.88;;;4.50;;
14118;SDS011;7138;49.246;9.100;2023-03-05T14:25:24;9.47;;;4.10;;
14118;SDS011;7138;49.246;9.100;2023-03-05T14:27:54;9.57;;;3.85;;
14118;SDS011;7138;49.246;9.100;2023-03-05T14:30:22;9.75;;;4.07;;
14118;SDS011;7138;49.246;9.100;2023-03-05T14:32:52;10.68;;;4.28;;
14118;SDS011;7138;49.246;9.100;2023-03-05T14:35:20;11.10;;;4.32;;
14118;SDS011;7138;49.246;9.100;2023-03-05T14:37:49;9.68;;;4.75;;
14118;SDS011;7138;49.246;9.100;2023-03-05T14:40:18;10.52;;;4.05;;
14118;SDS011;7138;49.246;9.100;2023-03-05T14:42:50;11.70;;;4.68;;
14118;SDS011;7138;49.246;9.100;2023-03-05T14:45:19;11.00;;;4.28;;
14118;SDS011;7138;49.246;9.100;2023-03-05T14:47:48;9.02;;;4.10;;
14118;SDS011;7138;49.246;9.100;2023-03-05T14:50:17;10.05;;;3.95;;
14118;SDS011;7138;49.246;9.100;2023-03-05T14:52:46;13.55;;;4.47;;
14118;SDS011;7138;49.246;9.100;2023-03-05T14:55:17;8.57;;;3.85;;
14118;SDS011;7138;49.246;9.100;2023-03-05T14:57:45;9.02;;;3.60;;
14118;SDS011;7138;49.246;9.100;2023-03-05T15:00:16;8.40;;;3.33;;
14118;SDS011;7138;49.246;9.100;2023-03-05T15:02:43;10.00;;;4.50;;
14118;SDS011;7138;49.246;9.100;2023-03-05T15:05:09;9.10;;;4.13;;
14118;SDS011;7138;49.246;9.100;2023-03-05T15:07:37;9.10;;;3.70;;
14118;SDS011;7138;49.246;9.100;2023-03-05T15:10:03;8.18;;;3.47;;
14118;SDS011;7138;49.246;9.100;2023-03-05T15:12:31;9.57;;;3.55;;
14118;SDS011;7138;49.246;9.100;2023-03-05T15:14:57;8.88;;;3.83;;
14118;SDS011;7138;49.246;9.100;2023-03-05T15:17:24;9.20;;;3.67;;